sensor_id;sensor_type;location;lat;lon;timestamp;P1;durP1;ratioP1;P2;durP2;ratioP2
4921;SDS011;16625;53.624;10.106;2023-01-19T00:01:39;22.40;;;12.10;;
4921;SDS011;16625;53.624;10.106;2023-01-19T00:04:06;15.93;;;10.70;;
4921;SDS011;16625;53.624;10.106;2023-01-19T00:06:33;22.70;;;11.30;;
4921;SDS011;16625;53.624;10.106;2023-01-19T00:08:59;21.63;;;10.33;;
4921;SDS011;16625;53.624;10.106;2023-01-19T00:11:26;22.43;;;12.40;;
4921;SDS011;16625;53.624;10.106;2023-01-19T00:13:55;18.67;;;11.20;;
4921;SDS011;16625;53.624;10.106;2023-01-19T00:16:22;15.37;;;9.27;;
4921;SDS011;16625;53.624;10.106;2023-01-19T00:18:49;23.90;;;11.60;;
4921;SDS011;16625;53.624;10.106;2023-01-19T00:21:17;26.07;;;11.63;;
4921;SDS011;16625;53.624;10.106;2023-01-19T00:23:45;21.80;;;12.03;;
4921;SDS011;16625;53.624;10.106;2023-01-19T00:26:15;24.83;;;12.40;;
4921;SDS011;16625;53.624;10.106;2023-01-19T00:28:43;18.93;;;11.60;;
4921;SDS011;16625;53.624;10.106;2023-01-19T00:31:11;23.17;;;12.27;;
4921;SDS011;16625;53.624;10.106;2023-01-19T00:33:38;12.97;;;8.57;;
4921;SDS011;16625;53.624;10.106;2023-01-19T00:36:06;18.50;;;13.30;;
4921;SDS011;16625;53.624;10.106;2023-01-19T00:38:34;20.30;;;11.03;;
4921;SDS011;16625;53.624;10.106;2023-01-19T00:41:02;15.90;;;9.57;;
4921;SDS011;16625;53.624;10.106;2023-01-19T00:43:30;16.50;;;10.33;;
4921;SDS011;16625;53.624;10.106;2023-01-19T00:45:56;17.70;;;9.27;;
4921;SDS011;16625;53.624;10.106;2023-01-19T00:48:24;15.03;;;9.30;;
4921;SDS011;16625;53.624;10.106;2023-01-19T00:50:51;17.27;;;10.23;;
4921;SDS011;16625;53.624;10.106;2023-01-19T00:53:18;21.50;;;12.00;;
4921;SDS011;16625;53.624;10.106;2023-01-19T00:55:45;22.03;;;10.20;;
4921;SDS011;16625;53.624;10.106;2023-01-19T00:58:12;20.13;;;10.67;;
4921;SDS011;16625;53.624;10.106;2023-01-19T01:00:39;16.70;;;10.03;;
4921;SDS011;16625;53.624;10.106;2023-01-19T01:03:08;26.90;;;12.53;;
4921;SDS011;16625;53.624;10.106;2023-01-19T01:05:38;21.73;;;11.77;;
4921;SDS011;16625;53.624;10.106;2023-01-19T01:08:08;19.60;;;11.93;;
4921;SDS011;16625;53.624;10.106;2023-01-19T01:10:35;16.87;;;10.57;;
4921;SDS011;16625;53.624;10.106;2023-01-19T01:13:02;17.87;;;11.87;;
4921;SDS011;16625;53.624;10.106;2023-01-19T01:15:29;15.47;;;10.97;;
4921;SDS011;16625;53.624;10.106;2023-01-19T01:17:56;16.30;;;9.67;;
4921;SDS011;16625;53.624;10.106;2023-01-19T01:20:23;25.03;;;10.93;;
4921;SDS011;16625;53.624;10.106;2023-01-19T01:22:53;24.23;;;10.90;;
4921;SDS011;16625;53.624;10.106;2023-01-19T01:25:22;19.03;;;11.77;;
4921;SDS011;16625;53.624;10.106;2023-01-19T01:27:50;16.97;;;10.10;;
4921;SDS011;16625;53.624;10.106;2023-01-19T01:30:18;13.10;;;9.67;;
4921;SDS011;16625;53.624;10.106;2023-01-19T01:32:46;20.23;;;9.37;;
4921;SDS011;16625;53.624;10.106;2023-01-19T01:35:13;15.40;;;9.80;;
4921;SDS011;16625;53.624;10.106;2023-01-19T01:37:43;20.67;;;9.33;;
4921;SDS011;16625;53.624;10.106;2023-01-19T01:40:13;16.90;;;11.30;;
4921;SDS011;16625;53.624;10.106;2023-01-19T01:42:42;12.03;;;8.00;;
4921;SDS011;16625;53.624;10.106;2023-01-19T01:45:21;20.10;;;12.00;;
4921;SDS011;16625;53.624;10.106;2023-01-19T01:48:03;20.23;;;11.50;;
4921;SDS011;16625;53.624;10.106;2023-01-19T01:50:36;20.07;;;9.50;;
4921;SDS011;16625;53.624;10.106;2023-01-19T01:53:27;18.07;;;11.10;;
4921;SDS011;16625;53.624;10.106;2023-01-19T01:55:59;18.43;;;9.93;;
4921;SDS011;16625;53.624;10.106;2023-01-19T01:58:30;15.57;;;9.83;;
4921;SDS011;16625;53.624;10.106;2023-01-19T02:04:04;18.60;;;10.53;;
4921;SDS011;16625;53.624;10.106;2023-01-19T02:06:32;17.67;;;9.70;;
4921;SDS011;16625;53.624;10.106;2023-01-19T02:09:13;16.30;;;10.70;;
4921;SDS011;16625;53.624;10.106;2023-01-19T02:11:59;14.40;;;9.00;;
4921;SDS011;16625;53.624;10.106;2023-01-19T02:14:43;15.43;;;10.13;;
4921;SDS011;16625;53.624;10.106;2023-01-19T02:17:11;16.23;;;9.20;;
4921;SDS011;16625;53.624;10.106;2023-01-19T02:19:39;17.80;;;10.50;;
4921;SDS011;16625;53.624;10.106;2023-01-19T02:22:23;16.10;;;8.80;;
4921;SDS011;16625;53.624;10.106;2023-01-19T02:25:01;19.43;;;9.33;;
4921;SDS011;16625;53.624;10.106;2023-01-19T02:27:29;15.13;;;10.13;;
4921;SDS011;16625;53.624;10.106;2023-01-19T02:29:57;20.23;;;10.60;;
4921;SDS011;16625;53.624;10.106;2023-01-19T02:32:24;19.20;;;9.37;;
4921;SDS011;16625;53.624;10.106;2023-01-19T02:34:52;15.47;;;9.03;;
4921;SDS011;16625;53.624;10.106;2023-01-19T02:37:19;19.67;;;10.00;;
4921;SDS011;16625;53.624;10.106;2023-01-19T02:39:48;17.07;;;10.40;;
4921;SDS011;16625;53.624;10.106;2023-01-19T02:42:21;16.57;;;8.97;;
4921;SDS011;16625;53.624;10.106;2023-01-19T02:44:53;14.73;;;9.70;;
4921;SDS011;16625;53.624;10.106;2023-01-19T02:47:21;15.13;;;11.43;;
4921;SDS011;16625;53.624;10.106;2023-01-19T02:49:53;13.77;;;8.90;;
4921;SDS011;16625;53.624;10.106;2023-01-19T02:52:23;17.80;;;10.10;;
4921;SDS011;16625;53.624;10.106;2023-01-19T02:54:56;15.30;;;9.73;;
4921;SDS011;16625;53.624;10.106;2023-01-19T02:57:44;17.90;;;10.40;;
4921;SDS011;16625;53.624;10.106;2023-01-19T03:00:24;21.43;;;8.77;;
4921;SDS011;16625;53.624;10.106;2023-01-19T03:03:07;15.27;;;8.70;;
4921;SDS011;16625;53.624;10.106;2023-01-19T03:05:44;15.27;;;10.10;;
4921;SDS011;16625;53.624;10.106;2023-01-19T03:08:22;17.00;;;10.30;;
4921;SDS011;16625;53.624;10.106;2023-01-19T03:10:58;17.93;;;10.90;;
4921;SDS011;16625;53.624;10.106;2023-01-19T03:13:32;15.17;;;11.47;;
4921;SDS011;16625;53.624;10.106;2023-01-19T03:16:40;16.43;;;10.80;;
4921;SDS011;16625;53.624;10.106;2023-01-19T03:19:11;17.13;;;10.00;;
4921;SDS011;16625;53.624;10.106;2023-01-19T03:21:44;15.07;;;10.70;;
4921;SDS011;16625;53.624;10.106;2023-01-19T03:24:14;16.63;;;9.77;;
4921;SDS011;16625;53.624;10.106;2023-01-19T03:26:48;26.30;;;11.33;;
4921;SDS011;16625;53.624;10.106;2023-01-19T03:29:25;14.60;;;10.13;;
4921;SDS011;16625;53.624;10.106;2023-01-19T03:31:58;22.30;;;9.10;;
4921;SDS011;16625;53.624;10.106;2023-01-19T03:38:06;20.43;;;11.40;;
4921;SDS011;16625;53.624;10.106;2023-01-19T03:40:39;18.13;;;11.33;;
4921;SDS011;16625;53.624;10.106;2023-01-19T03:43:07;17.60;;;11.27;;
4921;SDS011;16625;53.624;10.106;2023-01-19T03:45:37;14.50;;;8.20;;
4921;SDS011;16625;53.624;10.106;2023-01-19T03:48:05;16.73;;;9.83;;
4921;SDS011;16625;53.624;10.106;2023-01-19T03:50:33;18.83;;;11.33;;
4921;SDS011;16625;53.624;10.106;2023-01-19T03:53:01;21.70;;;10.50;;
4921;SDS011;16625;53.624;10.106;2023-01-19T03:55:32;12.40;;;8.43;;
4921;SDS011;16625;53.624;10.106;2023-01-19T03:58:00;9.63;;;7.57;;
4921;SDS011;16625;53.624;10.106;2023-01-19T04:00:29;19.23;;;11.20;;
4921;SDS011;16625;53.624;10.106;2023-01-19T04:02:57;20.03;;;11.13;;
4921;SDS011;16625;53.624;10.106;2023-01-19T04:05:24;16.77;;;11.23;;
4921;SDS011;16625;53.624;10.106;2023-01-19T04:07:51;16.23;;;11.00;;
4921;SDS011;16625;53.624;10.106;2023-01-19T04:10:18;21.33;;;12.03;;
4921;SDS011;16625;53.624;10.106;2023-01-19T04:12:48;15.87;;;10.87;;
4921;SDS011;16625;53.624;10.106;2023-01-19T04:15:22;13.87;;;9.20;;
4921;SDS011;16625;53.624;10.106;2023-01-19T04:17:49;16.37;;;9.50;;
4921;SDS011;16625;53.624;10.106;2023-01-19T04:20:18;19.50;;;11.93;;
4921;SDS011;16625;53.624;10.106;2023-01-19T04:22:47;25.47;;;14.90;;
4921;SDS011;16625;53.624;10.106;2023-01-19T04:25:15;14.73;;;9.40;;
4921;SDS011;16625;53.624;10.106;2023-01-19T04:27:43;16.03;;;11.50;;
4921;SDS011;16625;53.624;10.106;2023-01-19T04:30:10;17.73;;;11.40;;
4921;SDS011;16625;53.624;10.106;2023-01-19T04:32:40;14.50;;;10.30;;
4921;SDS011;16625;53.624;10.106;2023-01-19T04:35:08;24.90;;;10.30;;
4921;SDS011;16625;53.624;10.106;2023-01-19T04:37:40;21.97;;;11.40;;
4921;SDS011;16625;53.624;10.106;2023-01-19T04:40:10;16.73;;;10.97;;
4921;SDS011;16625;53.624;10.106;2023-01-19T04:42:37;33.03;;;12.83;;
4921;SDS011;16625;53.624;10.106;2023-01-19T04:45:08;22.43;;;11.67;;
4921;SDS011;16625;53.624;10.106;2023-01-19T04:47:44;17.27;;;10.20;;
4921;SDS011;16625;53.624;10.106;2023-01-19T04:50:10;16.20;;;11.97;;
4921;SDS011;16625;53.624;10.106;2023-01-19T04:52:40;21.83;;;12.23;;
4921;SDS011;16625;53.624;10.106;2023-01-19T04:55:07;20.33;;;12.07;;
4921;SDS011;16625;53.624;10.106;2023-01-19T04:57:35;18.77;;;11.13;;
4921;SDS011;16625;53.624;10.106;2023-01-19T05:00:02;16.07;;;12.63;;
4921;SDS011;16625;53.624;10.106;2023-01-19T05:02:41;12.97;;;8.00;;
4921;SDS011;16625;53.624;10.106;2023-01-19T05:05:09;21.67;;;12.60;;
4921;SDS011;16625;53.624;10.106;2023-01-19T05:07:37;22.73;;;11.97;;
4921;SDS011;16625;53.624;10.106;2023-01-19T05:10:08;19.40;;;12.67;;
4921;SDS011;16625;53.624;10.106;2023-01-19T05:12:36;18.20;;;11.33;;
4921;SDS011;16625;53.624;10.106;2023-01-19T05:15:03;17.60;;;11.30;;
4921;SDS011;16625;53.624;10.106;2023-01-19T05:17:31;24.00;;;14.30;;
4921;SDS011;16625;53.624;10.106;2023-01-19T05:20:00;20.13;;;12.17;;
4921;SDS011;16625;53.624;10.106;2023-01-19T05:22:28;24.13;;;13.97;;
4921;SDS011;16625;53.624;10.106;2023-01-19T05:24:58;24.60;;;14.03;;
4921;SDS011;16625;53.624;10.106;2023-01-19T05:27:29;24.00;;;13.00;;
4921;SDS011;16625;53.624;10.106;2023-01-19T05:29:58;18.37;;;12.70;;
4921;SDS011;16625;53.624;10.106;2023-01-19T05:32:25;25.50;;;14.83;;
4921;SDS011;16625;53.624;10.106;2023-01-19T05:34:52;20.30;;;11.40;;
4921;SDS011;16625;53.624;10.106;2023-01-19T05:37:19;20.13;;;12.90;;
4921;SDS011;16625;53.624;10.106;2023-01-19T05:39:47;20.57;;;11.97;;
4921;SDS011;16625;53.624;10.106;2023-01-19T05:42:14;21.50;;;12.80;;
4921;SDS011;16625;53.624;10.106;2023-01-19T05:44:43;25.47;;;14.70;;
4921;SDS011;16625;53.624;10.106;2023-01-19T05:47:11;16.87;;;11.50;;
4921;SDS011;16625;53.624;10.106;2023-01-19T05:49:40;20.77;;;11.77;;
4921;SDS011;16625;53.624;10.106;2023-01-19T05:52:08;26.90;;;12.77;;
4921;SDS011;16625;53.624;10.106;2023-01-19T05:54:36;13.27;;;8.50;;
4921;SDS011;16625;53.624;10.106;2023-01-19T05:57:04;23.73;;;13.50;;
4921;SDS011;16625;53.624;10.106;2023-01-19T05:59:31;26.63;;;14.97;;
4921;SDS011;16625;53.624;10.106;2023-01-19T06:02:02;17.27;;;10.57;;
4921;SDS011;16625;53.624;10.106;2023-01-19T06:04:32;29.73;;;13.90;;
4921;SDS011;16625;53.624;10.106;2023-01-19T06:06:59;31.30;;;14.67;;
4921;SDS011;16625;53.624;10.106;2023-01-19T06:09:27;22.67;;;13.90;;
4921;SDS011;16625;53.624;10.106;2023-01-19T06:11:54;21.70;;;13.33;;
4921;SDS011;16625;53.624;10.106;2023-01-19T06:14:23;15.53;;;9.90;;
4921;SDS011;16625;53.624;10.106;2023-01-19T06:16:50;23.63;;;13.10;;
4921;SDS011;16625;53.624;10.106;2023-01-19T06:19:19;21.70;;;13.27;;
4921;SDS011;16625;53.624;10.106;2023-01-19T06:21:47;21.20;;;12.70;;
4921;SDS011;16625;53.624;10.106;2023-01-19T06:24:16;16.20;;;9.67;;
4921;SDS011;16625;53.624;10.106;2023-01-19T06:26:43;19.93;;;12.87;;
4921;SDS011;16625;53.624;10.106;2023-01-19T06:29:10;20.47;;;14.60;;
4921;SDS011;16625;53.624;10.106;2023-01-19T06:31:40;19.87;;;12.93;;
4921;SDS011;16625;53.624;10.106;2023-01-19T06:34:07;16.97;;;11.93;;
4921;SDS011;16625;53.624;10.106;2023-01-19T06:36:36;28.83;;;13.80;;
4921;SDS011;16625;53.624;10.106;2023-01-19T06:39:03;21.87;;;11.67;;
4921;SDS011;16625;53.624;10.106;2023-01-19T06:41:34;21.70;;;13.90;;
4921;SDS011;16625;53.624;10.106;2023-01-19T06:44:04;16.07;;;11.90;;
4921;SDS011;16625;53.624;10.106;2023-01-19T06:46:34;18.70;;;10.60;;
4921;SDS011;16625;53.624;10.106;2023-01-19T06:49:02;19.87;;;12.20;;
4921;SDS011;16625;53.624;10.106;2023-01-19T06:51:28;18.57;;;11.57;;
4921;SDS011;16625;53.624;10.106;2023-01-19T06:53:58;20.63;;;13.57;;
4921;SDS011;16625;53.624;10.106;2023-01-19T06:56:25;16.50;;;11.27;;
4921;SDS011;16625;53.624;10.106;2023-01-19T06:58:52;16.77;;;11.57;;
4921;SDS011;16625;53.624;10.106;2023-01-19T07:01:19;19.73;;;12.57;;
4921;SDS011;16625;53.624;10.106;2023-01-19T07:03:46;19.17;;;13.00;;
4921;SDS011;16625;53.624;10.106;2023-01-19T07:06:14;18.60;;;12.53;;
4921;SDS011;16625;53.624;10.106;2023-01-19T07:08:41;24.30;;;11.23;;
4921;SDS011;16625;53.624;10.106;2023-01-19T07:11:13;17.30;;;12.60;;
4921;SDS011;16625;53.624;10.106;2023-01-19T07:13:40;23.07;;;14.00;;
4921;SDS011;16625;53.624;10.106;2023-01-19T07:16:15;20.20;;;14.13;;
4921;SDS011;16625;53.624;10.106;2023-01-19T07:18:43;16.60;;;12.80;;
4921;SDS011;16625;53.624;10.106;2023-01-19T07:21:25;18.90;;;13.47;;
4921;SDS011;16625;53.624;10.106;2023-01-19T07:23:52;18.37;;;12.53;;
4921;SDS011;16625;53.624;10.106;2023-01-19T07:26:21;19.63;;;12.20;;
4921;SDS011;16625;53.624;10.106;2023-01-19T07:28:49;19.50;;;12.80;;
4921;SDS011;16625;53.624;10.106;2023-01-19T07:31:17;19.40;;;12.70;;
4921;SDS011;16625;53.624;10.106;2023-01-19T07:33:44;22.10;;;13.37;;
4921;SDS011;16625;53.624;10.106;2023-01-19T07:36:11;21.03;;;12.40;;
4921;SDS011;16625;53.624;10.106;2023-01-19T07:38:38;23.17;;;14.93;;
4921;SDS011;16625;53.624;10.106;2023-01-19T07:41:08;18.67;;;12.53;;
4921;SDS011;16625;53.624;10.106;2023-01-19T07:43:37;19.80;;;12.63;;
4921;SDS011;16625;53.624;10.106;2023-01-19T07:49:10;18.83;;;12.00;;
4921;SDS011;16625;53.624;10.106;2023-01-19T07:51:37;28.13;;;15.30;;
4921;SDS011;16625;53.624;10.106;2023-01-19T07:54:05;25.47;;;14.27;;
4921;SDS011;16625;53.624;10.106;2023-01-19T07:56:32;23.17;;;13.33;;
4921;SDS011;16625;53.624;10.106;2023-01-19T07:59:00;22.70;;;13.50;;
4921;SDS011;16625;53.624;10.106;2023-01-19T08:01:31;22.40;;;15.17;;
4921;SDS011;16625;53.624;10.106;2023-01-19T08:03:58;21.90;;;14.80;;
4921;SDS011;16625;53.624;10.106;2023-01-19T08:06:26;23.10;;;13.90;;
4921;SDS011;16625;53.624;10.106;2023-01-19T08:08:58;20.83;;;12.90;;
4921;SDS011;16625;53.624;10.106;2023-01-19T08:11:26;32.30;;;15.53;;
4921;SDS011;16625;53.624;10.106;2023-01-19T08:13:53;28.53;;;17.07;;
4921;SDS011;16625;53.624;10.106;2023-01-19T08:16:24;25.53;;;15.37;;
4921;SDS011;16625;53.624;10.106;2023-01-19T08:18:54;23.33;;;13.53;;
4921;SDS011;16625;53.624;10.106;2023-01-19T08:21:22;23.33;;;13.90;;
4921;SDS011;16625;53.624;10.106;2023-01-19T08:23:52;25.33;;;15.77;;
4921;SDS011;16625;53.624;10.106;2023-01-19T08:26:20;22.07;;;14.43;;
4921;SDS011;16625;53.624;10.106;2023-01-19T08:28:51;25.07;;;15.57;;
4921;SDS011;16625;53.624;10.106;2023-01-19T08:31:18;20.33;;;13.83;;
4921;SDS011;16625;53.624;10.106;2023-01-19T08:33:46;22.70;;;14.40;;
4921;SDS011;16625;53.624;10.106;2023-01-19T08:36:13;21.57;;;15.33;;
4921;SDS011;16625;53.624;10.106;2023-01-19T08:38:40;22.93;;;14.53;;
4921;SDS011;16625;53.624;10.106;2023-01-19T08:41:10;23.77;;;14.60;;
4921;SDS011;16625;53.624;10.106;2023-01-19T08:43:37;24.80;;;14.80;;
4921;SDS011;16625;53.624;10.106;2023-01-19T08:46:04;26.20;;;14.07;;
4921;SDS011;16625;53.624;10.106;2023-01-19T08:48:36;23.20;;;14.23;;
4921;SDS011;16625;53.624;10.106;2023-01-19T08:51:04;28.70;;;13.83;;
4921;SDS011;16625;53.624;10.106;2023-01-19T08:53:31;21.80;;;13.73;;
4921;SDS011;16625;53.624;10.106;2023-01-19T08:55:59;27.90;;;15.03;;
4921;SDS011;16625;53.624;10.106;2023-01-19T08:58:26;24.03;;;14.20;;
4921;SDS011;16625;53.624;10.106;2023-01-19T09:00:53;28.20;;;15.70;;
4921;SDS011;16625;53.624;10.106;2023-01-19T09:03:26;21.40;;;10.37;;
4921;SDS011;16625;53.624;10.106;2023-01-19T09:09:54;26.97;;;14.20;;
4921;SDS011;16625;53.624;10.106;2023-01-19T09:12:24;22.53;;;13.30;;
4921;SDS011;16625;53.624;10.106;2023-01-19T09:15:14;23.17;;;14.17;;
4921;SDS011;16625;53.624;10.106;2023-01-19T09:17:50;25.47;;;14.87;;
4921;SDS011;16625;53.624;10.106;2023-01-19T09:20:59;16.73;;;9.10;;
4921;SDS011;16625;53.624;10.106;2023-01-19T09:24:01;23.33;;;13.07;;
4921;SDS011;16625;53.624;10.106;2023-01-19T09:35:51;16.57;;;11.27;;
4921;SDS011;16625;53.624;10.106;2023-01-19T09:38:32;20.40;;;13.13;;
4921;SDS011;16625;53.624;10.106;2023-01-19T09:41:08;22.73;;;14.93;;
4921;SDS011;16625;53.624;10.106;2023-01-19T09:43:44;28.40;;;15.90;;
4921;SDS011;16625;53.624;10.106;2023-01-19T09:46:20;28.30;;;17.50;;
4921;SDS011;16625;53.624;10.106;2023-01-19T09:48:54;23.20;;;14.90;;
4921;SDS011;16625;53.624;10.106;2023-01-19T09:51:38;27.27;;;16.40;;
4921;SDS011;16625;53.624;10.106;2023-01-19T09:54:13;27.50;;;16.03;;
4921;SDS011;16625;53.624;10.106;2023-01-19T09:56:44;31.87;;;16.60;;
4921;SDS011;16625;53.624;10.106;2023-01-19T09:59:16;34.83;;;16.70;;
4921;SDS011;16625;53.624;10.106;2023-01-19T10:02:06;27.87;;;14.37;;
4921;SDS011;16625;53.624;10.106;2023-01-19T10:04:53;26.37;;;15.43;;
4921;SDS011;16625;53.624;10.106;2023-01-19T10:07:44;25.57;;;15.23;;
4921;SDS011;16625;53.624;10.106;2023-01-19T10:10:23;27.30;;;15.07;;
4921;SDS011;16625;53.624;10.106;2023-01-19T10:13:03;29.27;;;15.30;;
4921;SDS011;16625;53.624;10.106;2023-01-19T10:15:52;28.30;;;16.33;;
4921;SDS011;16625;53.624;10.106;2023-01-19T10:18:34;22.43;;;14.73;;
4921;SDS011;16625;53.624;10.106;2023-01-19T10:21:19;18.93;;;12.80;;
4921;SDS011;16625;53.624;10.106;2023-01-19T10:24:17;30.27;;;15.93;;
4921;SDS011;16625;53.624;10.106;2023-01-19T10:27:04;30.10;;;14.63;;
4921;SDS011;16625;53.624;10.106;2023-01-19T10:29:42;26.40;;;15.60;;
4921;SDS011;16625;53.624;10.106;2023-01-19T10:32:15;24.30;;;15.23;;
4921;SDS011;16625;53.624;10.106;2023-01-19T10:34:47;21.87;;;12.93;;
4921;SDS011;16625;53.624;10.106;2023-01-19T10:37:26;23.20;;;14.77;;
4921;SDS011;16625;53.624;10.106;2023-01-19T10:40:18;28.67;;;15.57;;
4921;SDS011;16625;53.624;10.106;2023-01-19T10:42:55;22.27;;;16.27;;
4921;SDS011;16625;53.624;10.106;2023-01-19T10:45:33;23.20;;;13.97;;
4921;SDS011;16625;53.624;10.106;2023-01-19T10:48:04;22.23;;;13.23;;
4921;SDS011;16625;53.624;10.106;2023-01-19T10:50:37;26.43;;;15.20;;
4921;SDS011;16625;53.624;10.106;2023-01-19T10:53:05;29.93;;;14.80;;
4921;SDS011;16625;53.624;10.106;2023-01-19T10:55:49;20.03;;;13.67;;
4921;SDS011;16625;53.624;10.106;2023-01-19T10:58:41;27.97;;;15.07;;
4921;SDS011;16625;53.624;10.106;2023-01-19T11:01:22;22.30;;;13.80;;
4921;SDS011;16625;53.624;10.106;2023-01-19T11:03:50;16.73;;;11.03;;
4921;SDS011;16625;53.624;10.106;2023-01-19T11:06:27;25.70;;;15.17;;
4921;SDS011;16625;53.624;10.106;2023-01-19T11:09:08;24.50;;;11.47;;
4921;SDS011;16625;53.624;10.106;2023-01-19T11:11:43;19.57;;;11.70;;
4921;SDS011;16625;53.624;10.106;2023-01-19T11:14:16;18.53;;;12.43;;
4921;SDS011;16625;53.624;10.106;2023-01-19T11:17:19;24.90;;;13.87;;
4921;SDS011;16625;53.624;10.106;2023-01-19T11:19:55;18.30;;;13.50;;
4921;SDS011;16625;53.624;10.106;2023-01-19T11:22:32;24.33;;;12.97;;
4921;SDS011;16625;53.624;10.106;2023-01-19T11:25:05;20.23;;;12.80;;
4921;SDS011;16625;53.624;10.106;2023-01-19T11:34:25;18.93;;;12.03;;
4921;SDS011;16625;53.624;10.106;2023-01-19T11:40:08;25.00;;;11.97;;
4921;SDS011;16625;53.624;10.106;2023-01-19T11:42:40;21.63;;;12.93;;
4921;SDS011;16625;53.624;10.106;2023-01-19T11:45:42;22.63;;;12.60;;
4921;SDS011;16625;53.624;10.106;2023-01-19T11:48:20;17.33;;;12.33;;
4921;SDS011;16625;53.624;10.106;2023-01-19T11:59:24;17.80;;;12.47;;
4921;SDS011;16625;53.624;10.106;2023-01-19T12:01:59;19.43;;;11.50;;
4921;SDS011;16625;53.624;10.106;2023-01-19T12:04:46;27.27;;;12.93;;
4921;SDS011;16625;53.624;10.106;2023-01-19T12:07:46;17.37;;;12.97;;
4921;SDS011;16625;53.624;10.106;2023-01-19T12:10:34;18.80;;;11.33;;
4921;SDS011;16625;53.624;10.106;2023-01-19T12:13:37;19.10;;;11.33;;
4921;SDS011;16625;53.624;10.106;2023-01-19T12:30:46;23.80;;;13.87;;
4921;SDS011;16625;53.624;10.106;2023-01-19T12:33:47;21.77;;;12.63;;
4921;SDS011;16625;53.624;10.106;2023-01-19T13:29:14;19.83;;;10.17;;
4921;SDS011;16625;53.624;10.106;2023-01-19T13:32:32;19.73;;;11.20;;
4921;SDS011;16625;53.624;10.106;2023-01-19T13:35:20;15.50;;;9.40;;
4921;SDS011;16625;53.624;10.106;2023-01-19T13:38:06;19.63;;;11.63;;
4921;SDS011;16625;53.624;10.106;2023-01-19T13:40:53;15.00;;;10.30;;
4921;SDS011;16625;53.624;10.106;2023-01-19T13:59:59;14.70;;;9.47;;
4921;SDS011;16625;53.624;10.106;2023-01-19T14:02:50;20.23;;;9.80;;
4921;SDS011;16625;53.624;10.106;2023-01-19T14:19:02;18.17;;;10.70;;
4921;SDS011;16625;53.624;10.106;2023-01-19T14:27:16;16.40;;;9.90;;
4921;SDS011;16625;53.624;10.106;2023-01-19T14:30:11;17.40;;;8.80;;
4921;SDS011;16625;53.624;10.106;2023-01-19T19:42:29;12.90;;;3.23;;
4921;SDS011;16625;53.624;10.106;2023-01-19T19:45:16;13.40;;;3.47;;
4921;SDS011;16625;53.624;10.106;2023-01-19T23:15:51;6.87;;;3.50;;
4921;SDS011;16625;53.624;10.106;2023-01-19T23:18:20;3.97;;;3.33;;
4921;SDS011;16625;53.624;10.106;2023-01-19T23:20:54;16.23;;;4.37;;
4921;SDS011;16625;53.624;10.106;2023-01-19T23:23:37;13.37;;;4.33;;
4921;SDS011;16625;53.624;10.106;2023-01-19T23:26:12;4.43;;;3.47;;
4921;SDS011;16625;53.624;10.106;2023-01-19T23:28:41;3.70;;;2.70;;
4921;SDS011;16625;53.624;10.106;2023-01-19T23:31:14;7.37;;;3.43;;
4921;SDS011;16625;53.624;10.106;2023-01-19T23:33:46;5.37;;;3.20;;
4921;SDS011;16625;53.624;10.106;2023-01-19T23:36:14;6.80;;;3.60;;
4921;SDS011;16625;53.624;10.106;2023-01-19T23:38:46;7.93;;;3.27;;
4921;SDS011;16625;53.624;10.106;2023-01-19T23:41:14;9.57;;;3.50;;
4921;SDS011;16625;53.624;10.106;2023-01-19T23:43:42;6.10;;;3.90;;
4921;SDS011;16625;53.624;10.106;2023-01-19T23:46:11;11.70;;;2.97;;
4921;SDS011;16625;53.624;10.106;2023-01-19T23:48:41;9.50;;;3.80;;
4921;SDS011;16625;53.624;10.106;2023-01-19T23:51:09;6.73;;;3.40;;
4921;SDS011;16625;53.624;10.106;2023-01-19T23:56:56;4.97;;;3.13;;
4921;SDS011;16625;53.624;10.106;2023-01-19T23:59:25;14.53;;;3.57;;
